Observation data for Guthrie on 05/25/2019      Previous  Date  Next       Current Mesonet Observations  Soil Data  Daily Summary Page  Observations in Plain Language
KPFS 250500Z 04005KT 18/16 A2997 RMK A01 T01790164  RH  095%=      5-min Rain = 0
KPFS 250505Z 03004KT 18/16 A2997 RMK A01 T01790164  RH  096%=      5-min Rain = 0
KPFS 250510Z 05003KT 18/16 A2997 RMK A01 T01790164  RH  096%=      5-min Rain = 0
KPFS 250515Z 04002KT 18/16 A2997 RMK A01 T01790164  RH  096%=      5-min Rain = 0
KPFS 250520Z 02002KT 18/16 A2997 RMK A01 T01780164  RH  096%=      5-min Rain = 0
KPFS 250525Z 04001KT 18/16 A2997 RMK A01 T01780164  RH  096%=      5-min Rain = 0
KPFS 250530Z 07003KT 18/16 A2996 RMK A01 T01780163  RH  096%=      5-min Rain = 0
KPFS 250535Z 09004KT 18/16 A2996 RMK A01 T01780164  RH  096%=      5-min Rain = 0
KPFS 250540Z 09005KT 18/16 A2996 RMK A01 T01780164  RH  096%=      5-min Rain = 0
KPFS 250545Z 09007KT 18/16 A2996 RMK A01 T01790164  RH  096%=      5-min Rain = 0
KPFS 250550Z 10005KT 18/16 A2996 RMK A01 T01790164  RH  096%=      5-min Rain = 0
KPFS 250555Z 11004KT 18/17 A2996 RMK A01 T01800165  RH  095%=      5-min Rain = 0
KPFS 250600Z 10004KT 18/17 A2996 RMK A01 T01810165  RH  095%=      5-min Rain = 0
KPFS 250605Z 10003KT 18/17 A2996 RMK A01 T01810166  RH  095%=      5-min Rain = 0
KPFS 250610Z 10004KT 18/17 A2996 RMK A01 T01820166  RH  095%=      5-min Rain = 0
KPFS 250615Z 10005KT 18/17 A2996 RMK A01 T01830167  RH  095%=      5-min Rain = 0
KPFS 250620Z 10005KT 18/17 A2996 RMK A01 T01840168  RH  095%=      5-min Rain = 0
KPFS 250625Z 09004KT 19/17 A2996 RMK A01 T01850168  RH  095%=      5-min Rain = 0
KPFS 250630Z 09006KT 19/17 A2996 RMK A01 T01860169  RH  095%=      5-min Rain = 0
KPFS 250635Z 09005KT 19/17 A2996 RMK A01 T01870170  RH  094%=      5-min Rain = 0
KPFS 250640Z 09004KT 19/17 A2996 RMK A01 T01880170  RH  094%=      5-min Rain = 0
KPFS 250645Z 09005KT 19/17 A2996 RMK A01 T01880171  RH  094%=      5-min Rain = 0
KPFS 250650Z 10006KT 19/17 A2995 RMK A01 T01880170  RH  094%=      5-min Rain = 0
KPFS 250655Z 11005G11KT 19/17 A2995 RMK A01 T01890171  RH  094%=      5-min Rain = 0
KPFS 250700Z 11008KT 19/17 A2995 RMK A01 T01900172  RH  094%=      5-min Rain = 0
KPFS 250705Z 11007KT 19/17 A2995 RMK A01 T01910172  RH  093%=      5-min Rain = 0
KPFS 250710Z 11007KT 19/17 A2994 RMK A01 T01920173  RH  093%=      5-min Rain = 0
KPFS 250715Z 12008KT 19/17 A2994 RMK A01 T01930174  RH  093%=      5-min Rain = 0
KPFS 250720Z 11009KT 19/17 A2993 RMK A01 T01930173  RH  093%=      5-min Rain = 0
KPFS 250725Z 11009G14KT 19/17 A2993 RMK A01 T01930174  RH  093%=      5-min Rain = 0
KPFS 250730Z 12009KT 19/17 A2993 RMK A01 T01930174  RH  093%=      5-min Rain = 0
KPFS 250735Z 11009KT 19/17 A2993 RMK A01 T01930174  RH  094%=      5-min Rain = 0
KPFS 250740Z 12008KT 19/18 A2993 RMK A01 T01930175  RH  094%=      5-min Rain = 0
KPFS 250745Z 12006KT 19/18 A2993 RMK A01 T01930175  RH  094%=      5-min Rain = 0
KPFS 250750Z 13007KT 19/18 A2993 RMK A01 T01930176  RH  094%=      5-min Rain = 0
KPFS 250755Z 13007KT 19/18 A2993 RMK A01 T01930176  RH  095%=      5-min Rain = 0
KPFS 250800Z 13008KT 19/18 A2993 RMK A01 T01940177  RH  095%=      5-min Rain = 0
KPFS 250805Z 13009KT 19/18 A2993 RMK A01 T01940178  RH  095%=      5-min Rain = 0
KPFS 250810Z 13009KT 20/18 A2992 RMK A01 T01950179  RH  095%=      5-min Rain = 0
KPFS 250815Z 13008KT 20/18 A2992 RMK A01 T01950179  RH  095%=      5-min Rain = 0
KPFS 250820Z 13008KT 20/18 A2992 RMK A01 T01960180  RH  095%=      5-min Rain = 0
KPFS 250825Z 13008KT 20/18 A2992 RMK A01 T01960180  RH  095%=      5-min Rain = 0
KPFS 250830Z 13008KT 20/18 A2992 RMK A01 T01970181  RH  096%=      5-min Rain = 0
KPFS 250835Z 14008KT 20/18 A2992 RMK A01 T01970181  RH  096%=      5-min Rain = 0
KPFS 250840Z 14007KT 20/18 A2992 RMK A01 T01970181  RH  096%=      5-min Rain = 0
KPFS 250845Z 15007KT 20/18 A2992 RMK A01 T01970181  RH  096%=      5-min Rain = 0
KPFS 250850Z 15006KT 20/18 A2992 RMK A01 T01970181  RH  096%=      5-min Rain = 0
KPFS 250855Z 15007KT 20/18 A2992 RMK A01 T01980183  RH  096%=      5-min Rain = 0
KPFS 250900Z 15007KT 20/18 A2993 RMK A01 T01990184  RH  096%=      5-min Rain = 0
KPFS 250905Z 15007KT 20/19 A2993 RMK A01 T02000185  RH  096%=      5-min Rain = 0
KPFS 250910Z 15008KT 20/19 A2993 RMK A01 T02020186  RH  096%=      5-min Rain = 0
KPFS 250915Z 15008KT 20/19 A2993 RMK A01 T02030186  RH  095%=      5-min Rain = 0
KPFS 250920Z 14008KT 20/19 A2992 RMK A01 T02030186  RH  095%=      5-min Rain = 0
KPFS 250925Z 14009KT 20/19 A2992 RMK A01 T02040187  RH  095%=      5-min Rain = 0
KPFS 250930Z 14010KT 21/19 A2992 RMK A01 T02060187  RH  094%=      5-min Rain = 0
KPFS 250935Z 14010KT 21/19 A2992 RMK A01 T02070187  RH  093%=      5-min Rain = 0
KPFS 250940Z 14010KT 21/19 A2992 RMK A01 T02070186  RH  093%=      5-min Rain = 0
KPFS 250945Z 14009KT 21/19 A2992 RMK A01 T02070185  RH  092%=      5-min Rain = 0
KPFS 250950Z 14009KT 21/19 A2992 RMK A01 T02070185  RH  092%=      5-min Rain = 0
KPFS 250955Z 14009KT 21/19 A2992 RMK A01 T02060185  RH  092%=      5-min Rain = 0
KPFS 251000Z 14009KT 21/18 A2992 RMK A01 T02060184  RH  092%=      5-min Rain = 0
KPFS 251005Z 14009KT 21/18 A2992 RMK A01 T02060184  RH  092%=      5-min Rain = 0
KPFS 251010Z 14009KT 21/18 A2992 RMK A01 T02060184  RH  092%=      5-min Rain = 0
KPFS 251015Z 14008KT 21/18 A2992 RMK A01 T02050183  RH  092%=      5-min Rain = 0
KPFS 251020Z 15007KT 21/18 A2992 RMK A01 T02050183  RH  092%=      5-min Rain = 0
KPFS 251025Z 15007KT 20/18 A2992 RMK A01 T02040183  RH  093%=      5-min Rain = 0
KPFS 251030Z 15007KT 20/18 A2992 RMK A01 T02040183  RH  093%=      5-min Rain = 0
KPFS 251035Z 14007KT 20/18 A2993 RMK A01 T02030183  RH  093%=      5-min Rain = 0
KPFS 251040Z 15007KT 20/18 A2993 RMK A01 T02030183  RH  093%=      5-min Rain = 0
KPFS 251045Z 15005KT 20/18 A2993 RMK A01 T02030182  RH  093%=      5-min Rain = 0
KPFS 251050Z 16006KT 20/18 A2993 RMK A01 T02020182  RH  093%=      5-min Rain = 0
KPFS 251055Z 15005KT 20/18 A2993 RMK A01 T02010181  RH  093%=      5-min Rain = 0
KPFS 251100Z 15005KT 20/18 A2993 RMK A01 T02000181  RH  093%=      5-min Rain = 0
KPFS 251105Z 15004KT 20/18 A2993 RMK A01 T01990180  RH  094%=      5-min Rain = 0
KPFS 251110Z 15005KT 20/18 A2993 RMK A01 T01980180  RH  094%=      5-min Rain = 0
KPFS 251115Z 15006KT 20/18 A2993 RMK A01 T01980180  RH  094%=      5-min Rain = 0
KPFS 251120Z 15006KT 20/18 A2993 RMK A01 T01990181  RH  094%=      5-min Rain = 0
KPFS 251125Z 15006KT 20/18 A2994 RMK A01 T01990181  RH  094%=      5-min Rain = 0
KPFS 251130Z 16007KT 20/18 A2994 RMK A01 T01990181  RH  094%=      5-min Rain = 0
KPFS 251135Z 16007KT 20/18 A2994 RMK A01 T01990181  RH  094%=      5-min Rain = 0
KPFS 251140Z 15007KT 20/18 A2994 RMK A01 T01990181  RH  094%=      5-min Rain = 0
KPFS 251145Z 16007KT 20/18 A2994 RMK A01 T02000182  RH  094%=      5-min Rain = 0
KPFS 251150Z 16008KT 20/18 A2994 RMK A01 T02010183  RH  094%=      5-min Rain = 0
KPFS 251155Z 16007KT 20/18 A2995 RMK A01 T02020183  RH  094%=      5-min Rain = 0
KPFS 251200Z 16007KT 20/18 A2995 RMK A01 T02020183  RH  094%=      5-min Rain = 0
KPFS 251205Z 16006KT 20/18 A2995 RMK A01 T02030183  RH  093%=      5-min Rain = 0
KPFS 251210Z 16006KT 20/18 A2995 RMK A01 T02040184  RH  093%=      5-min Rain = 0
KPFS 251215Z 17006KT 21/19 A2995 RMK A01 T02050185  RH  093%=      5-min Rain = 0
KPFS 251220Z 17006KT 21/19 A2996 RMK A01 T02060186  RH  093%=      5-min Rain = 0
KPFS 251225Z 17006KT 21/19 A2996 RMK A01 T02080186  RH  092%=      5-min Rain = 0
KPFS 251230Z 17006KT 21/19 A2996 RMK A01 T02090187  RH  092%=      5-min Rain = 0
KPFS 251235Z 17007KT 21/19 A2996 RMK A01 T02100186  RH  091%=      5-min Rain = 0
KPFS 251240Z 17006KT 21/19 A2997 RMK A01 T02100186  RH  091%=      5-min Rain = 0
KPFS 251245Z 17006KT 21/19 A2997 RMK A01 T02110187  RH  091%=      5-min Rain = 0
KPFS 251250Z 17008KT 21/19 A2997 RMK A01 T02120187  RH  090%=      5-min Rain = 0
KPFS 251255Z 17007G12KT 21/19 A2997 RMK A01 T02130187  RH  090%=      5-min Rain = 0
KPFS 251300Z 17007KT 21/19 A2997 RMK A01 T02140187  RH  089%=      5-min Rain = 0
KPFS 251305Z 17009G14KT 22/19 A2997 RMK A01 T02150187  RH  089%=      5-min Rain = 0
KPFS 251310Z 17008KT 22/19 A2997 RMK A01 T02160187  RH  088%=      5-min Rain = 0
KPFS 251315Z 17008KT 22/19 A2998 RMK A01 T02170188  RH  088%=      5-min Rain = 0
KPFS 251320Z 17008KT 22/19 A2998 RMK A01 T02180188  RH  088%=      5-min Rain = 0
KPFS 251325Z 17007KT 22/19 A2998 RMK A01 T02200188  RH  087%=      5-min Rain = 0
KPFS 251330Z 17010G15KT 22/19 A2998 RMK A01 T02210188  RH  086%=      5-min Rain = 0
KPFS 251335Z 17010G15KT 22/19 A2998 RMK A01 T02230188  RH  085%=      5-min Rain = 0
KPFS 251340Z 16011KT 22/19 A2998 RMK A01 T02230188  RH  085%=      5-min Rain = 0
KPFS 251345Z 17012G17KT 22/19 A2998 RMK A01 T02240187  RH  084%=      5-min Rain = 0
KPFS 251350Z 17010G15KT 23/19 A2998 RMK A01 T02250188  RH  084%=      5-min Rain = 0
KPFS 251355Z 17011KT 23/19 A2998 RMK A01 T02270188  RH  083%=      5-min Rain = 0
KPFS 251400Z 17012G17KT 23/19 A2998 RMK A01 T02290189  RH  083%=      5-min Rain = 0
KPFS 251405Z 17014G20KT 23/19 A2998 RMK A01 T02290188  RH  082%=      5-min Rain = 0
KPFS 251410Z 17012KT 23/19 A2998 RMK A01 T02290187  RH  082%=      5-min Rain = 0
KPFS 251415Z 17012KT 23/19 A2998 RMK A01 T02290188  RH  082%=      5-min Rain = 0
KPFS 251420Z 18012G17KT 23/19 A2998 RMK A01 T02320189  RH  081%=      5-min Rain = 0
KPFS 251425Z 17011KT 23/19 A2998 RMK A01 T02330190  RH  081%=      5-min Rain = 0
KPFS 251430Z 18011G17KT 23/19 A2998 RMK A01 T02340190  RH  080%=      5-min Rain = 0
KPFS 251435Z 17012G20KT 24/19 A2998 RMK A01 T02370191  RH  080%=      5-min Rain = 0
KPFS 251440Z 18014G20KT 24/19 A2998 RMK A01 T02430192  RH  077%=      5-min Rain = 0
KPFS 251445Z 17015G21KT 24/19 A2998 RMK A01 T02440191  RH  076%=      5-min Rain = 0
KPFS 251450Z 17016G21KT 25/19 A2998 RMK A01 T02450191  RH  076%=      5-min Rain = 0
KPFS 251455Z 18015KT 25/19 A2998 RMK A01 T02460191  RH  076%=      5-min Rain = 0
KPFS 251500Z 18014G21KT 25/19 A2998 RMK A01 T02480192  RH  075%=      5-min Rain = 0
KPFS 251505Z 18016G23KT 25/19 A2998 RMK A01 T02500192  RH  074%=      5-min Rain = 0
KPFS 251510Z 18016G21KT 25/19 A2998 RMK A01 T02500192  RH  074%=      5-min Rain = 0
KPFS 251515Z 17015G21KT 25/19 A2998 RMK A01 T02510193  RH  074%=      5-min Rain = 0
KPFS 251520Z 17014G23KT 26/20 A2998 RMK A01 T02560196  RH  073%=      5-min Rain = 0
KPFS 251525Z 17017G23KT 25/19 A2998 RMK A01 T02520192  RH  074%=      5-min Rain = 0
KPFS 251530Z 17015KT 25/19 A2999 RMK A01 T02520194  RH  074%=      5-min Rain = 0
KPFS 251535Z 17017G22KT 25/19 A2999 RMK A01 T02510192  RH  074%=      5-min Rain = 0
KPFS 251540Z 17017G24KT 25/19 A2999 RMK A01 T02510192  RH  074%=      5-min Rain = 0
KPFS 251545Z 17016KT 25/19 A2999 RMK A01 T02540193  RH  073%=      5-min Rain = 0
KPFS 251550Z 17014G21KT 25/19 A2999 RMK A01 T02530194  RH  074%=      5-min Rain = 0
KPFS 251555Z 17014G21KT 25/19 A2999 RMK A01 T02520194  RH  074%=      5-min Rain = 0
KPFS 251600Z 17014G21KT 25/19 A2999 RMK A01 T02530194  RH  074%=      5-min Rain = 0
KPFS 251605Z 17016G21KT 26/20 A2999 RMK A01 T02580195  RH  072%=      5-min Rain = 0
KPFS 251610Z 17017G22KT 26/19 A2999 RMK A01 T02570193  RH  072%=      5-min Rain = 0
KPFS 251615Z 17015G21KT 26/19 A2999 RMK A01 T02560194  RH  073%=      5-min Rain = 0
KPFS 251620Z 17013KT 26/20 A2999 RMK A01 T02550195  RH  073%=      5-min Rain = 0
KPFS 251625Z 17013KT 26/20 A2999 RMK A01 T02560196  RH  074%=      5-min Rain = 0
KPFS 251630Z 17011G16KT 26/20 A2999 RMK A01 T02550196  RH  074%=      5-min Rain = 0
KPFS 251635Z 17013G18KT 25/20 A2999 RMK A01 T02540195  RH  074%=      5-min Rain = 0
KPFS 251640Z 17012G17KT 25/20 A2999 RMK A01 T02540196  RH  074%=      5-min Rain = 0
KPFS 251645Z 17013G18KT 26/20 A2999 RMK A01 T02570197  RH  074%=      5-min Rain = 0
KPFS 251650Z 16013G21KT 27/20 A2999 RMK A01 T02650199  RH  071%=      5-min Rain = 0
KPFS 251655Z 17014G19KT 26/20 A2999 RMK A01 T02630197  RH  071%=      5-min Rain = 0
KPFS 251700Z 17014G21KT 26/20 A2999 RMK A01 T02620196  RH  071%=      5-min Rain = 0
KPFS 251705Z 16017KT 26/20 A2998 RMK A01 T02640196  RH  070%=      5-min Rain = 0
KPFS 251710Z 17017G25KT 27/20 A2998 RMK A01 T02670196  RH  069%=      5-min Rain = 0
KPFS 251715Z 17017G24KT 27/20 A2998 RMK A01 T02670195  RH  068%=      5-min Rain = 0
KPFS 251720Z 17016G22KT 27/20 A2998 RMK A01 T02730197  RH  067%=      5-min Rain = 0
KPFS 251725Z 18018G25KT 27/19 A2998 RMK A01 T02710193  RH  066%=      5-min Rain = 0
KPFS 251730Z 17021G27KT 27/19 A2998 RMK A01 T02690192  RH  066%=      5-min Rain = 0
KPFS 251735Z 17017G22KT 27/19 A2998 RMK A01 T02710194  RH  066%=      5-min Rain = 0
KPFS 251740Z 17019G25KT 28/20 A2997 RMK A01 T02750196  RH  066%=      5-min Rain = 0
KPFS 251745Z 17019G24KT 28/20 A2997 RMK A01 T02780197  RH  065%=      5-min Rain = 0.01
KPFS 251750Z 17018G24KT 28/20 A2997 RMK A01 T02770196  RH  065%=      5-min Rain = 0
KPFS 251755Z 17015G22KT 28/20 A2997 RMK A01 T02800200  RH  065%=      5-min Rain = 0
KPFS 251800Z 18015G25KT 28/20 A2997 RMK A01 T02840202  RH  065%=      5-min Rain = 0
KPFS 251805Z 17017G23KT 28/20 A2997 RMK A01 T02800198  RH  065%=      5-min Rain = 0
KPFS 251810Z 18017G24KT 28/20 A2997 RMK A01 T02800198  RH  065%=      5-min Rain = 0
KPFS 251815Z 17017G22KT 28/20 A2996 RMK A01 T02770198  RH  066%=      5-min Rain = 0
KPFS 251820Z 17018G24KT 28/20 A2996 RMK A01 T02760198  RH  066%=      5-min Rain = 0
KPFS 251825Z 17017G22KT 27/20 A2996 RMK A01 T02710196  RH  067%=      5-min Rain = 0
KPFS 251830Z 18017G22KT 27/20 A2996 RMK A01 T02700197  RH  068%=      5-min Rain = 0
KPFS 251835Z 18015G22KT 28/20 A2996 RMK A01 T02760199  RH  067%=      5-min Rain = 0
KPFS 251840Z 18015G24KT 27/20 A2996 RMK A01 T02700198  RH  069%=      5-min Rain = 0
KPFS 251845Z 18017G24KT 27/20 A2995 RMK A01 T02710195  RH  067%=      5-min Rain = 0
KPFS 251850Z 19018G24KT 27/19 A2995 RMK A01 T02700194  RH  067%=      5-min Rain = 0
KPFS 251855Z 18019KT 27/20 A2995 RMK A01 T02690195  RH  067%=      5-min Rain = 0
KPFS 251900Z 18017G22KT 27/20 A2995 RMK A01 T02720197  RH  067%=      5-min Rain = 0
KPFS 251905Z 18018G26KT 27/20 A2995 RMK A01 T02720196  RH  067%=      5-min Rain = 0
KPFS 251910Z 18014G19KT 27/20 A2995 RMK A01 T02690198  RH  069%=      5-min Rain = 0
KPFS 251915Z 18016G22KT 27/20 A2995 RMK A01 T02670197  RH  069%=      5-min Rain = 0
KPFS 251920Z 19018G24KT 27/20 A2995 RMK A01 T02680196  RH  068%=      5-min Rain = 0
KPFS 251925Z 18017G22KT 27/20 A2995 RMK A01 T02690197  RH  068%=      5-min Rain = 0
KPFS 251930Z 18013G19KT 27/20 A2995 RMK A01 T02700199  RH  069%=      5-min Rain = 0
KPFS 251935Z 18016G23KT 27/20 A2994 RMK A01 T02740199  RH  068%=      5-min Rain = 0
KPFS 251940Z 17016KT 27/20 A2994 RMK A01 T02720197  RH  068%=      5-min Rain = 0
KPFS 251945Z 18013KT 27/20 A2994 RMK A01 T02730200  RH  068%=      5-min Rain = 0
KPFS 251950Z 18013G19KT 28/20 A2993 RMK A01 T02750201  RH  068%=      5-min Rain = 0
KPFS 251955Z 18015KT 28/20 A2993 RMK A01 T02780200  RH  066%=      5-min Rain = 0
KPFS 252000Z 17016G22KT 28/20 A2993 RMK A01 T02770199  RH  066%=      5-min Rain = 0
KPFS 252005Z 17016G21KT 27/20 A2992 RMK A01 T02730196  RH  067%=      5-min Rain = 0
KPFS 252010Z 17014KT 28/20 A2992 RMK A01 T02760201  RH  068%=      5-min Rain = 0
KPFS 252015Z 17014G21KT 29/20 A2992 RMK A01 T02860202  RH  064%=      5-min Rain = 0
KPFS 252020Z 17014G22KT 29/20 A2992 RMK A01 T02850201  RH  064%=      5-min Rain = 0
KPFS 252025Z 17017G26KT 29/20 A2992 RMK A01 T02860199  RH  063%=      5-min Rain = 0
KPFS 252030Z 16018KT 28/20 A2992 RMK A01 T02820196  RH  063%=      5-min Rain = 0
KPFS 252035Z 17017G23KT 28/20 A2992 RMK A01 T02800196  RH  064%=      5-min Rain = 0
KPFS 252040Z 18015G21KT 28/20 A2992 RMK A01 T02780195  RH  064%=      5-min Rain = 0
KPFS 252045Z 17013G18KT 28/20 A2992 RMK A01 T02810201  RH  065%=      5-min Rain = 0
KPFS 252050Z 17016G22KT 28/20 A2992 RMK A01 T02820197  RH  063%=      5-min Rain = 0
KPFS 252055Z 16016G22KT 28/20 A2992 RMK A01 T02810196  RH  064%=      5-min Rain = 0
KPFS 252100Z 17013G19KT 28/20 A2992 RMK A01 T02810199  RH  065%=      5-min Rain = 0
KPFS 252105Z 17015G22KT 28/20 A2992 RMK A01 T02840201  RH  064%=      5-min Rain = 0
KPFS 252110Z 17018G24KT 28/20 A2992 RMK A01 T02840198  RH  063%=      5-min Rain = 0
KPFS 252115Z 17017G22KT 28/20 A2992 RMK A01 T02820197  RH  063%=      5-min Rain = 0
KPFS 252120Z 17015G21KT 28/20 A2991 RMK A01 T02790198  RH  065%=      5-min Rain = 0
KPFS 252125Z 16014G24KT 28/20 A2991 RMK A01 T02780201  RH  067%=      5-min Rain = 0
KPFS 252130Z 16016G22KT 28/20 A2991 RMK A01 T02770196  RH  065%=      5-min Rain = 0
KPFS 252135Z 16016G24KT 28/20 A299 RMK A01 T02770197  RH  065%=      5-min Rain = 0
KPFS 252140Z 16015G20KT 28/20 A2991 RMK A01 T02770198  RH  065%=      5-min Rain = 0
KPFS 252145Z 16016KT 28/20 A299 RMK A01 T02780198  RH  065%=      5-min Rain = 0
KPFS 252150Z 16017G22KT 28/20 A299 RMK A01 T02800198  RH  065%=      5-min Rain = 0
KPFS 252155Z 16017G23KT 28/20 A299 RMK A01 T02780197  RH  065%=      5-min Rain = 0
KPFS 252200Z 17017G22KT 28/20 A299 RMK A01 T02770197  RH  066%=      5-min Rain = 0
KPFS 252205Z 16015G21KT 28/20 A2989 RMK A01 T02770198  RH  066%=      5-min Rain = 0
KPFS 252210Z 17014G20KT 28/20 A299 RMK A01 T02760199  RH  067%=      5-min Rain = 0
KPFS 252215Z 17014G19KT 28/20 A299 RMK A01 T02770199  RH  067%=      5-min Rain = 0
KPFS 252220Z 17014G19KT 28/20 A2989 RMK A01 T02810201  RH  066%=      5-min Rain = 0
KPFS 252225Z 17012G18KT 28/20 A2989 RMK A01 T02820201  RH  065%=      5-min Rain = 0
KPFS 252230Z 16016G21KT 28/20 A2989 RMK A01 T02780198  RH  065%=      5-min Rain = 0
KPFS 252235Z 16018G23KT 28/20 A2988 RMK A01 T02780196  RH  065%=      5-min Rain = 0
KPFS 252240Z 16015G21KT 28/20 A2988 RMK A01 T02760197  RH  065%=      5-min Rain = 0
KPFS 252245Z 16013KT 27/20 A2988 RMK A01 T02740198  RH  067%=      5-min Rain = 0
KPFS 252250Z 16014G19KT 27/20 A2988 RMK A01 T02740198  RH  067%=      5-min Rain = 0
KPFS 252255Z 15013G19KT 27/20 A2987 RMK A01 T02730199  RH  068%=      5-min Rain = 0
KPFS 252300Z 15014G19KT 27/20 A2986 RMK A01 T02730198  RH  067%=      5-min Rain = 0
KPFS 252305Z 15013G18KT 27/20 A2986 RMK A01 T02720199  RH  068%=      5-min Rain = 0
KPFS 252310Z 16016G22KT 27/20 A2986 RMK A01 T02720197  RH  067%=      5-min Rain = 0
KPFS 252315Z 16016G21KT 27/20 A2985 RMK A01 T02730196  RH  067%=      5-min Rain = 0
KPFS 252320Z 16017G22KT 27/20 A2985 RMK A01 T02730196  RH  067%=      5-min Rain = 0
KPFS 252325Z 15017G22KT 27/20 A2985 RMK A01 T02730197  RH  067%=      5-min Rain = 0
KPFS 252330Z 15018G23KT 27/20 A2985 RMK A01 T02740197  RH  066%=      5-min Rain = 0
KPFS 252335Z 15019G26KT 28/20 A2985 RMK A01 T02750196  RH  066%=      5-min Rain = 0
KPFS 252340Z 15018G24KT 28/20 A2984 RMK A01 T02750196  RH  066%=      5-min Rain = 0
KPFS 252345Z 15017G25KT 28/20 A2984 RMK A01 T02750195  RH  065%=      5-min Rain = 0
KPFS 252350Z 15018G25KT 28/20 A2985 RMK A01 T02770195  RH  065%=      5-min Rain = 0
KPFS 252355Z 15018G25KT 28/20 A2985 RMK A01 T02780195  RH  064%=      5-min Rain = 0
KPFS 260000Z 16015G21KT 28/20 A2986 RMK A01 T02780195  RH  064%=      5-min Rain = 0
KPFS 260005Z 16018G26KT 28/20 A2986 RMK A01 T02780195  RH  064%=      5-min Rain = 0
KPFS 260010Z 16017G23KT 28/20 A2986 RMK A01 T02790195  RH  064%=      5-min Rain = 0
KPFS 260015Z 16017G22KT 28/19 A2987 RMK A01 T02790194  RH  063%=      5-min Rain = 0
KPFS 260020Z 16015G20KT 28/19 A2988 RMK A01 T02780194  RH  064%=      5-min Rain = 0
KPFS 260025Z 16014G19KT 28/19 A2988 RMK A01 T02780194  RH  064%=      5-min Rain = 0
KPFS 260030Z 16013G21KT 28/19 A2988 RMK A01 T02790194  RH  064%=      5-min Rain = 0
KPFS 260035Z 16013KT 28/19 A2988 RMK A01 T02770194  RH  064%=      5-min Rain = 0
KPFS 260040Z 16013G18KT 27/19 A2988 RMK A01 T02740194  RH  065%=      5-min Rain = 0
KPFS 260045Z 16012KT 27/20 A2988 RMK A01 T02730196  RH  066%=      5-min Rain = 0
KPFS 260050Z 16012G17KT 27/20 A2989 RMK A01 T02740196  RH  066%=      5-min Rain = 0
KPFS 260055Z 17010G15KT 27/20 A2989 RMK A01 T02740196  RH  066%=      5-min Rain = 0
KPFS 260100Z 17011KT 27/20 A2989 RMK A01 T02720196  RH  067%=      5-min Rain = 0
KPFS 260105Z 17011KT 27/20 A2989 RMK A01 T02710196  RH  068%=      5-min Rain = 0
KPFS 260110Z 17012G18KT 27/20 A2989 RMK A01 T02700195  RH  067%=      5-min Rain = 0
KPFS 260115Z 17011KT 27/19 A2989 RMK A01 T02680194  RH  068%=      5-min Rain = 0
KPFS 260120Z 16011KT 27/19 A299 RMK A01 T02660193  RH  068%=      5-min Rain = 0
KPFS 260125Z 16010KT 27/19 A299 RMK A01 T02660193  RH  068%=      5-min Rain = 0
KPFS 260130Z 16009KT 27/19 A299 RMK A01 T02650193  RH  068%=      5-min Rain = 0
KPFS 260135Z 17010KT 26/19 A299 RMK A01 T02640193  RH  069%=      5-min Rain = 0
KPFS 260140Z 17010KT 26/19 A2991 RMK A01 T02640193  RH  068%=      5-min Rain = 0
KPFS 260145Z 16008KT 26/19 A2991 RMK A01 T02630193  RH  069%=      5-min Rain = 0
KPFS 260150Z 16008KT 26/19 A2991 RMK A01 T02610194  RH  070%=      5-min Rain = 0
KPFS 260155Z 16009KT 26/19 A2991 RMK A01 T02600194  RH  071%=      5-min Rain = 0
KPFS 260200Z 16009KT 26/19 A2991 RMK A01 T02590194  RH  071%=      5-min Rain = 0
KPFS 260205Z 16008KT 26/20 A2991 RMK A01 T02580195  RH  072%=      5-min Rain = 0
KPFS 260210Z 16008KT 26/20 A2991 RMK A01 T02570195  RH  073%=      5-min Rain = 0
KPFS 260215Z 16008KT 26/20 A2991 RMK A01 T02560195  RH  073%=      5-min Rain = 0
KPFS 260220Z 15009KT 26/20 A299 RMK A01 T02550195  RH  074%=      5-min Rain = 0
KPFS 260225Z 15009KT 25/20 A299 RMK A01 T02540195  RH  074%=      5-min Rain = 0
KPFS 260230Z 16009KT 25/20 A299 RMK A01 T02530196  RH  075%=      5-min Rain = 0
KPFS 260235Z 16010KT 25/20 A2991 RMK A01 T02520196  RH  075%=      5-min Rain = 0
KPFS 260240Z 16010KT 25/20 A2992 RMK A01 T02530196  RH  075%=      5-min Rain = 0
KPFS 260245Z 17010KT 25/20 A2992 RMK A01 T02540196  RH  075%=      5-min Rain = 0
KPFS 260250Z 17010KT 25/20 A2992 RMK A01 T02530196  RH  075%=      5-min Rain = 0
KPFS 260255Z 17010KT 25/20 A2991 RMK A01 T02520195  RH  075%=      5-min Rain = 0
KPFS 260300Z 17010KT 25/20 A2991 RMK A01 T02510195  RH  075%=      5-min Rain = 0
KPFS 260305Z 16009KT 25/20 A2991 RMK A01 T02500195  RH  076%=      5-min Rain = 0
KPFS 260310Z 16009KT 25/20 A2991 RMK A01 T02500195  RH  075%=      5-min Rain = 0
KPFS 260315Z 16009KT 25/19 A299 RMK A01 T02500194  RH  075%=      5-min Rain = 0
KPFS 260320Z 15008KT 25/19 A299 RMK A01 T02480194  RH  076%=      5-min Rain = 0
KPFS 260325Z 15008KT 25/19 A299 RMK A01 T02460194  RH  077%=      5-min Rain = 0
KPFS 260330Z 15007KT 24/19 A299 RMK A01 T02440194  RH  078%=      5-min Rain = 0
KPFS 260335Z 14006KT 24/19 A299 RMK A01 T02420193  RH  079%=      5-min Rain = 0
KPFS 260340Z 14007KT 24/19 A299 RMK A01 T02400193  RH  079%=      5-min Rain = 0
KPFS 260345Z 13007KT 24/19 A2989 RMK A01 T02390193  RH  080%=      5-min Rain = 0
KPFS 260350Z 12007KT 24/19 A2989 RMK A01 T02370193  RH  081%=      5-min Rain = 0
KPFS 260355Z 12008KT 24/19 A2989 RMK A01 T02360193  RH  082%=      5-min Rain = 0
KPFS 260400Z 12008KT 24/19 A2989 RMK A01 T02350193  RH  082%=      5-min Rain = 0
KPFS 260405Z 12008KT 23/19 A299 RMK A01 T02340193  RH  082%=      5-min Rain = 0
KPFS 260410Z 12009KT 23/19 A2991 RMK A01 T02330192  RH  083%=      5-min Rain = 0
KPFS 260415Z 12008KT 23/19 A2991 RMK A01 T02320192  RH  083%=      5-min Rain = 0
KPFS 260420Z 12008KT 23/19 A2992 RMK A01 T02320192  RH  083%=      5-min Rain = 0
KPFS 260425Z 12008KT 23/19 A2992 RMK A01 T02320192  RH  083%=      5-min Rain = 0
KPFS 260430Z 12009KT 23/19 A2993 RMK A01 T02310192  RH  083%=      5-min Rain = 0
KPFS 260435Z 12008KT 23/19 A2993 RMK A01 T02300192  RH  084%=      5-min Rain = 0
KPFS 260440Z 12008KT 23/19 A2993 RMK A01 T02290192  RH  084%=      5-min Rain = 0
KPFS 260445Z 12008KT 23/19 A2993 RMK A01 T02280192  RH  085%=      5-min Rain = 0
KPFS 260450Z 11007KT 23/19 A2993 RMK A01 T02280192  RH  085%=      5-min Rain = 0
KPFS 260455Z 10007KT 23/19 A2993 RMK A01 T02270192  RH  085%=      5-min Rain = 0

Page generated in 0.0367 seconds.